Brownfield, ME (04010)

1:21 PM EDT on April 25, 2017 (GMT -0400)
misty lane | | Change Station

Elev 404 ft 43.94 °N, 70.87 °W | Updated 33 seconds ago

Rain
Rain
45.7 °F
Feels Like 46 °F
N
0.0
Wind Variable Wind from North
Gusts 2.0 mph

Today
High -- | Low -- °F
--% Chance of Precip.
Yesterday
High -- | Low -- °F
Precip. -- in
Pressure 30.39 in
Visibility 10.0 miles
Clouds Few 1900 ft
Few 5000 ft
Overcast 7000 ft
Windchill 46 °F
Dew Point 43 °F
Humidity 91%
Rainfall 0.12 in
Snow Depth Not available.
5:43 AM 7:39 PM
Waning Crescent, 1% visible
METAR KIZG 251654Z AUTO 01005KT 10SM -RA FEW019 FEW050 OVC070 08/06 A3038 RMK AO2 SLP291 P0003 T00780056
Pressure 30.39 in
Visibility 10.0 miles
Clouds Few 1900 ft
Few 5000 ft
Overcast 7000 ft
Windchill 46 °F
Dew Point 43 °F
Humidity 91%
Rainfall 0.12 in
Snow Depth Not available.
5:43 AM 7:39 PM
Waning Crescent, 1% visible
METAR KIZG 251654Z AUTO 01005KT 10SM -RA FEW019 FEW050 OVC070 08/06 A3038 RMK AO2 SLP291 P0003 T00780056

Get Severe Weather Alerts

Thanks for signing up!

Be on the lookout for a verification email in your inbox.

You'll start receiving the daily forecast at 8 AM.

×

10-Day Weather Forecast

Almanac

Astronomy

Apr. 25, 2017 Rise Set
Actual Time
Civil Twilight
Nautical Twilight
Astronomical Twilight
Moon
Length of Visible Light
Length of Day
Tomorrow will be .
, % of the Moon is Illuminated

Today's Extremes

State Highs State Lows

Community

WunderPhotos

WunderBlog® & News

Nearby

Air Quality

  Air Quality AQ Index Pollutant
Not available.

Snow Depth

Station Depth Elevation

Earthquake Activity

City Distance Mag. Time & Date
Minimum magnitude displayed is 2.5.

Coastal Water Temperatures

Place Temperature

Stations

Nearby Weather Stations

Station Location Temp. Windchill Dew Point Humidity Wind Precip. Elev Updated Type
                   

Watches & Warnings

There are currently no watches in effect.